createdAt,value
2022-08-25T00:02:09.817Z,4.30
2022-08-25T00:04:37.177Z,3.90
2022-08-25T00:07:05.897Z,4.40
2022-08-25T00:09:34.724Z,5.00
2022-08-25T00:12:02.338Z,4.00
2022-08-25T00:14:36.258Z,4.90
2022-08-25T00:17:04.470Z,4.50
2022-08-25T00:19:34.826Z,4.67
2022-08-25T00:22:02.099Z,4.60
2022-08-25T00:24:29.655Z,4.20
2022-08-25T00:26:58.625Z,4.63
2022-08-25T00:29:26.983Z,4.37
2022-08-25T00:31:55.105Z,5.20
2022-08-25T00:34:25.794Z,4.87
2022-08-25T00:36:54.108Z,4.40
2022-08-25T00:39:22.511Z,4.93
2022-08-25T00:41:51.526Z,4.70
2022-08-25T00:44:18.901Z,4.63
2022-08-25T00:46:49.358Z,5.03
2022-08-25T00:49:26.299Z,5.17
2022-08-25T00:51:59.239Z,5.27
2022-08-25T00:54:32.157Z,5.50
2022-08-25T00:57:00.443Z,5.00
2022-08-25T00:59:28.015Z,4.80
2022-08-25T01:01:55.316Z,4.83
2022-08-25T01:07:19.688Z,4.90
2022-08-25T01:09:49.902Z,5.23
2022-08-25T01:12:16.540Z,5.30
2022-08-25T01:14:46.166Z,5.07
2022-08-25T01:17:13.523Z,5.67
2022-08-25T01:19:40.451Z,5.67
2022-08-25T01:22:07.406Z,5.20
2022-08-25T01:25:03.939Z,5.30
2022-08-25T01:27:30.571Z,5.40
2022-08-25T01:29:58.032Z,5.20
2022-08-25T01:32:25.217Z,4.83
2022-08-25T01:34:51.979Z,5.43
2022-08-25T01:37:19.311Z,6.03
2022-08-25T01:39:46.127Z,5.30
2022-08-25T01:42:13.364Z,5.40
2022-08-25T01:44:44.437Z,5.43
2022-08-25T01:47:12.043Z,5.30
2022-08-25T01:49:38.634Z,5.60
2022-08-25T01:52:25.959Z,4.93
2022-08-25T01:54:52.596Z,5.57
2022-08-25T01:57:19.583Z,5.40
2022-08-25T01:59:47.594Z,5.30
2022-08-25T02:02:14.253Z,6.00
2022-08-25T02:04:44.403Z,5.53
2022-08-25T02:07:11.584Z,6.57
2022-08-25T02:09:38.462Z,6.00
2022-08-25T02:12:05.244Z,5.40
2022-08-25T02:14:31.830Z,5.23
2022-08-25T02:16:58.336Z,5.73
2022-08-25T02:19:25.892Z,5.73
2022-08-25T02:21:52.861Z,5.67
2022-08-25T02:24:19.855Z,5.53
2022-08-25T02:26:46.533Z,6.40
2022-08-25T02:29:13.487Z,5.87
2022-08-25T02:31:40.448Z,6.47
2022-08-25T02:34:07.788Z,6.10
2022-08-25T02:36:34.949Z,5.63
2022-08-25T02:39:01.669Z,6.80
2022-08-25T02:41:31.787Z,6.37
2022-08-25T02:44:03.353Z,6.20
2022-08-25T02:46:31.087Z,6.30
2022-08-25T02:48:57.688Z,5.83
2022-08-25T02:51:25.714Z,6.40
2022-08-25T02:53:52.485Z,6.40
2022-08-25T02:56:20.666Z,6.27
2022-08-25T02:58:48.060Z,6.00
2022-08-25T03:01:15.994Z,6.43
2022-08-25T03:03:45.150Z,6.20
2022-08-25T03:06:19.446Z,6.40
2022-08-25T03:08:46.062Z,5.90
2022-08-25T03:11:12.614Z,6.03
2022-08-25T03:13:39.695Z,6.17
2022-08-25T03:16:11.277Z,5.90
2022-08-25T03:18:40.873Z,5.93
2022-08-25T03:21:08.314Z,5.97
2022-08-25T03:23:35.064Z,5.43
2022-08-25T03:26:20.875Z,5.47
2022-08-25T03:28:47.552Z,5.90
2022-08-25T03:31:14.367Z,6.40
2022-08-25T03:33:40.993Z,6.57
2022-08-25T03:36:08.854Z,6.03
2022-08-25T03:38:38.474Z,8.33
2022-08-25T03:41:17.451Z,7.30
2022-08-25T03:43:44.059Z,6.33
2022-08-25T03:46:20.921Z,6.63
2022-08-25T03:48:48.541Z,6.30
2022-08-25T03:51:27.952Z,6.80
2022-08-25T03:53:55.161Z,6.03
2022-08-25T03:56:21.817Z,6.43
2022-08-25T03:58:48.402Z,6.17
2022-08-25T04:01:16.081Z,5.97
2022-08-25T04:03:45.634Z,6.43
2022-08-25T04:06:13.067Z,6.53
2022-08-25T04:08:39.890Z,5.97
2022-08-25T04:11:16.242Z,6.70
2022-08-25T04:13:43.462Z,6.17
2022-08-25T04:16:12.848Z,6.57
2022-08-25T04:18:40.366Z,6.83
2022-08-25T04:21:09.741Z,6.03
2022-08-25T04:23:37.622Z,6.33
2022-08-25T04:26:16.269Z,7.33
2022-08-25T04:28:43.187Z,6.67
2022-08-25T04:31:11.887Z,6.07
2022-08-25T04:33:39.272Z,6.83
2022-08-25T04:36:11.461Z,7.33
2022-08-25T04:38:40.391Z,6.50
2022-08-25T04:41:11.014Z,6.80
2022-08-25T04:43:39.680Z,6.87
2022-08-25T04:46:12.549Z,6.77
2022-08-25T04:48:40.634Z,6.87
2022-08-25T04:51:08.838Z,6.73
2022-08-25T04:53:36.804Z,6.20
2022-08-25T04:56:08.010Z,7.60
2022-08-25T04:58:35.332Z,7.13
2022-08-25T05:01:08.101Z,6.60
2022-08-25T05:03:35.620Z,6.63
2022-08-25T05:06:02.918Z,6.73
2022-08-25T05:08:29.655Z,6.67
2022-08-25T05:10:56.968Z,6.73
2022-08-25T05:13:25.351Z,6.83
2022-08-25T05:15:57.656Z,6.43
2022-08-25T05:18:29.150Z,9.00
2022-08-25T05:20:57.262Z,7.50
2022-08-25T05:23:25.147Z,6.47
2022-08-25T05:25:52.804Z,6.60
2022-08-25T05:28:20.189Z,6.97
2022-08-25T05:30:49.072Z,6.67
2022-08-25T05:33:17.059Z,6.63
2022-08-25T05:35:43.914Z,6.17
2022-08-25T05:38:15.393Z,6.83
2022-08-25T05:40:42.409Z,6.93
2022-08-25T05:43:09.490Z,6.23
2022-08-25T05:45:36.267Z,6.33
2022-08-25T05:48:03.102Z,6.20
2022-08-25T05:50:29.714Z,6.00
2022-08-25T05:52:56.259Z,6.07
2022-08-25T05:55:22.941Z,6.07
2022-08-25T05:57:49.932Z,5.63
2022-08-25T06:00:18.795Z,5.73
2022-08-25T06:02:46.397Z,6.40
2022-08-25T06:05:21.991Z,6.47
2022-08-25T06:07:51.879Z,6.50
2022-08-25T06:10:20.241Z,6.60
2022-08-25T06:12:47.504Z,6.37
2022-08-25T06:15:18.227Z,6.47
2022-08-25T06:17:45.279Z,6.80
2022-08-25T06:20:17.910Z,6.30
2022-08-25T06:22:45.228Z,5.90
2022-08-25T06:25:14.441Z,6.70
2022-08-25T06:27:41.026Z,6.40
2022-08-25T06:30:10.857Z,6.30
2022-08-25T06:32:39.985Z,6.60
2022-08-25T06:35:10.388Z,6.33
2022-08-25T06:37:37.848Z,6.33
2022-08-25T06:40:06.303Z,6.30
2022-08-25T06:42:33.058Z,6.57
2022-08-25T06:44:59.597Z,6.30
2022-08-25T06:47:26.208Z,7.00
2022-08-25T06:49:52.764Z,6.43
2022-08-25T06:52:19.881Z,6.23
2022-08-25T06:54:47.024Z,6.90
2022-08-25T06:57:15.823Z,6.90
2022-08-25T06:59:42.517Z,6.43
2022-08-25T07:02:09.745Z,6.50
2022-08-25T07:04:36.941Z,7.00
2022-08-25T07:07:04.122Z,6.97
2022-08-25T07:09:31.382Z,6.97
2022-08-25T07:11:58.159Z,6.50
2022-08-25T07:14:25.207Z,7.20
2022-08-25T07:16:51.738Z,6.90
2022-08-25T07:19:21.033Z,7.23
2022-08-25T07:21:51.618Z,7.40
2022-08-25T07:24:19.097Z,6.43
2022-08-25T07:26:46.787Z,7.43
2022-08-25T07:29:17.306Z,7.17
2022-08-25T07:31:44.571Z,6.93
2022-08-25T07:34:29.767Z,7.27
2022-08-25T07:36:57.047Z,7.37
2022-08-25T07:39:25.376Z,7.47
2022-08-25T07:41:52.984Z,6.87
2022-08-25T07:44:23.896Z,7.00
2022-08-25T07:46:51.497Z,7.23
2022-08-25T07:49:23.326Z,7.07
2022-08-25T07:52:03.903Z,7.37
2022-08-25T07:54:34.331Z,7.37
2022-08-25T07:57:04.635Z,7.30
2022-08-25T07:59:39.440Z,7.43
2022-08-25T08:02:16.050Z,7.13
2022-08-25T08:04:49.494Z,7.90
2022-08-25T08:07:42.241Z,7.90
2022-08-25T08:13:00.571Z,6.93
2022-08-25T08:15:29.812Z,6.83
2022-08-25T08:17:57.919Z,7.17
2022-08-25T08:20:25.010Z,6.50
2022-08-25T08:22:51.700Z,6.67
2022-08-25T08:25:21.181Z,6.83
2022-08-25T08:27:48.869Z,6.70
2022-08-25T08:30:16.766Z,7.70
2022-08-25T08:33:06.299Z,6.63
2022-08-25T08:35:30.446Z,7.07
2022-08-25T08:37:56.982Z,6.77
2022-08-25T08:40:24.734Z,6.63
2022-08-25T08:43:04.013Z,6.53
2022-08-25T08:45:47.167Z,6.60
2022-08-25T08:48:19.163Z,7.23
2022-08-25T08:50:51.755Z,6.60
2022-08-25T08:53:26.004Z,6.83
2022-08-25T08:56:04.252Z,6.37
2022-08-25T08:59:00.608Z,5.83
2022-08-25T09:01:44.119Z,6.37
2022-08-25T09:04:20.649Z,6.20
2022-08-25T09:06:51.135Z,6.47
2022-08-25T09:09:26.802Z,6.77
2022-08-25T09:12:31.688Z,6.83
2022-08-25T09:15:57.510Z,6.33
2022-08-25T09:18:50.854Z,6.80
2022-08-25T09:21:20.851Z,6.53
2022-08-25T09:24:16.770Z,5.60
2022-08-25T09:26:57.678Z,6.60
2022-08-25T09:29:28.584Z,5.70
2022-08-25T09:32:00.337Z,6.30
2022-08-25T09:34:32.515Z,5.80
2022-08-25T09:37:00.023Z,6.00
2022-08-25T09:39:27.807Z,5.67
2022-08-25T09:42:00.318Z,6.13
2022-08-25T09:44:43.906Z,5.83
2022-08-25T09:47:23.850Z,6.70
2022-08-25T09:50:00.271Z,6.13
2022-08-25T09:52:41.437Z,5.90
2022-08-25T09:55:08.309Z,5.57
2022-08-25T09:57:37.822Z,6.37
2022-08-25T10:00:16.327Z,5.13
2022-08-25T10:02:45.099Z,5.43
2022-08-25T10:05:23.389Z,5.30
2022-08-25T10:07:57.466Z,5.20
2022-08-25T10:10:34.600Z,5.70
2022-08-25T10:13:03.716Z,5.33
2022-08-25T10:15:38.743Z,5.50
2022-08-25T10:18:18.941Z,5.47
2022-08-25T10:21:01.839Z,5.77
2022-08-25T10:23:28.919Z,5.30
2022-08-25T10:26:04.589Z,6.00
2022-08-25T10:28:46.238Z,6.40
2022-08-25T10:31:38.008Z,5.80
2022-08-25T10:34:20.095Z,5.57
2022-08-25T10:37:17.701Z,5.43
2022-08-25T10:39:55.482Z,6.30
2022-08-25T10:42:43.295Z,6.30
2022-08-25T10:45:44.572Z,5.30
2022-08-25T10:48:33.496Z,5.00
2022-08-25T10:51:19.594Z,5.37
2022-08-25T10:54:12.823Z,5.70
2022-08-25T10:56:45.950Z,5.57
2022-08-25T10:59:35.146Z,5.57
2022-08-25T11:02:13.833Z,5.77
2022-08-25T11:04:49.526Z,5.20
2022-08-25T11:07:22.158Z,5.23
2022-08-25T11:09:53.460Z,5.00
2022-08-25T11:12:30.501Z,5.07
2022-08-25T11:15:10.075Z,5.40
2022-08-25T11:17:50.233Z,5.03
2022-08-25T11:20:27.052Z,4.93
2022-08-25T11:23:07.627Z,5.27
2022-08-25T11:25:41.470Z,5.20
2022-08-25T11:28:16.950Z,5.27
2022-08-25T11:30:44.585Z,5.30
2022-08-25T11:33:16.815Z,4.87
2022-08-25T11:36:05.110Z,5.00
2022-08-25T11:38:39.447Z,4.93
2022-08-25T11:41:21.835Z,5.03
2022-08-25T11:44:32.807Z,4.93
2022-08-25T11:46:59.286Z,4.20
2022-08-25T11:49:49.135Z,5.00
2022-08-25T11:52:34.673Z,4.68
2022-08-25T11:55:36.854Z,4.60
2022-08-25T11:58:30.947Z,4.63
2022-08-25T12:01:00.662Z,4.68
2022-08-25T12:03:36.330Z,4.72
2022-08-25T12:06:14.889Z,4.82
2022-08-25T12:08:59.626Z,4.70
2022-08-25T12:11:42.296Z,4.45
2022-08-25T12:14:28.754Z,4.80
2022-08-25T12:16:55.421Z,4.32
2022-08-25T12:19:34.321Z,4.70
2022-08-25T12:22:04.172Z,4.72
2022-08-25T12:24:47.790Z,4.60
2022-08-25T12:27:38.139Z,4.50
2022-08-25T12:30:21.131Z,4.40
2022-08-25T12:33:02.492Z,4.35
2022-08-25T12:35:33.233Z,4.50
2022-08-25T12:38:04.867Z,4.25
2022-08-25T12:40:36.431Z,4.25
2022-08-25T12:47:14.577Z,4.05
2022-08-25T12:49:41.274Z,4.15
2022-08-25T12:52:11.686Z,3.83
2022-08-25T12:54:53.990Z,3.63
2022-08-25T12:57:43.320Z,3.90
2022-08-25T13:03:12.343Z,3.28
2022-08-25T13:06:14.613Z,3.90
2022-08-25T13:09:19.116Z,3.70
2022-08-25T13:11:56.781Z,3.45
2022-08-25T13:14:35.058Z,3.42
2022-08-25T13:17:05.762Z,3.85
2022-08-25T13:19:34.735Z,3.70
2022-08-25T13:22:16.330Z,3.70
2022-08-25T13:24:47.339Z,3.83
2022-08-25T13:27:26.683Z,3.65
2022-08-25T13:29:58.095Z,3.80
2022-08-25T13:32:34.317Z,3.72
2022-08-25T13:35:11.934Z,3.83
2022-08-25T13:37:40.911Z,3.45
2022-08-25T13:40:29.449Z,3.88
2022-08-25T13:43:02.816Z,3.35
2022-08-25T13:45:41.425Z,3.30
2022-08-25T13:48:20.904Z,3.40
2022-08-25T13:50:52.134Z,3.83
2022-08-25T13:53:26.067Z,3.45
2022-08-25T13:55:58.030Z,3.30
2022-08-25T13:58:38.898Z,3.30
2022-08-25T14:01:22.748Z,3.38
2022-08-25T14:04:52.753Z,3.42
2022-08-25T14:07:20.363Z,3.58
2022-08-25T14:09:54.059Z,2.90
2022-08-25T14:12:46.328Z,3.80
2022-08-25T14:15:20.099Z,3.35
2022-08-25T14:18:14.120Z,3.50
2022-08-25T14:20:50.569Z,3.53
2022-08-25T14:23:21.610Z,3.03
2022-08-25T14:25:52.460Z,3.38
2022-08-25T14:28:22.263Z,3.47
2022-08-25T14:30:53.890Z,3.50
2022-08-25T14:33:28.209Z,3.20
2022-08-25T14:35:58.210Z,3.45
2022-08-25T14:38:26.239Z,3.42
2022-08-25T14:40:54.148Z,3.38
2022-08-25T14:43:24.161Z,3.20
2022-08-25T14:45:58.501Z,3.38
2022-08-25T14:48:32.618Z,3.42
2022-08-25T14:51:00.371Z,3.63
2022-08-25T14:53:28.003Z,3.58
2022-08-25T14:55:59.100Z,3.22
2022-08-25T14:58:26.703Z,3.47
2022-08-25T15:00:54.680Z,3.63
2022-08-25T15:03:31.728Z,3.65
2022-08-25T15:06:00.122Z,3.00
2022-08-25T15:08:45.148Z,3.10
2022-08-25T15:11:13.343Z,3.05
2022-08-25T15:13:40.227Z,2.83
2022-08-25T15:16:08.735Z,2.65
2022-08-25T15:18:36.742Z,2.97
2022-08-25T15:21:03.522Z,2.85
2022-08-25T15:23:30.129Z,2.50
2022-08-25T15:25:56.914Z,2.83
2022-08-25T15:28:24.310Z,2.50
2022-08-25T15:30:53.177Z,2.63
2022-08-25T15:33:19.757Z,2.40
2022-08-25T15:35:46.624Z,2.65
2022-08-25T15:38:16.538Z,2.75
2022-08-25T15:40:43.102Z,2.85
2022-08-25T15:43:10.132Z,2.70
2022-08-25T15:45:37.755Z,2.60
2022-08-25T15:48:06.916Z,2.50
2022-08-25T15:50:36.919Z,2.60
2022-08-25T15:53:07.055Z,2.70
2022-08-25T15:55:40.322Z,2.35
2022-08-25T15:58:08.843Z,2.80
2022-08-25T16:00:35.997Z,2.50
2022-08-25T16:03:04.817Z,2.58
2022-08-25T16:05:37.249Z,2.75
2022-08-25T16:08:04.458Z,2.50
2022-08-25T16:10:39.723Z,2.50
2022-08-25T16:13:08.639Z,2.35
2022-08-25T16:15:36.178Z,2.80
2022-08-25T16:18:04.794Z,2.40
2022-08-25T16:20:33.417Z,2.83
2022-08-25T16:23:02.632Z,2.63
2022-08-25T16:25:31.322Z,2.95
2022-08-25T16:27:58.024Z,3.20
2022-08-25T16:30:25.121Z,2.90
2022-08-25T16:32:51.825Z,2.85
2022-08-25T16:35:18.666Z,3.03
2022-08-25T16:37:45.386Z,2.67
2022-08-25T16:40:14.872Z,2.38
2022-08-25T16:42:41.866Z,3.03
2022-08-25T16:45:08.921Z,2.50
2022-08-25T16:47:38.082Z,2.53
2022-08-25T16:50:08.906Z,2.97
2022-08-25T16:52:56.226Z,3.00
2022-08-25T16:55:25.627Z,3.08
2022-08-25T16:57:54.292Z,2.75
2022-08-25T17:00:25.038Z,3.00
2022-08-25T17:02:58.423Z,2.90
2022-08-25T17:05:26.698Z,3.30
2022-08-25T17:08:12.441Z,3.60
2022-08-25T17:10:41.403Z,3.28
2022-08-25T17:13:08.845Z,3.90
2022-08-25T17:15:39.551Z,3.55
2022-08-25T17:18:06.405Z,3.03
2022-08-25T17:20:34.684Z,3.13
2022-08-25T17:23:01.646Z,3.25
2022-08-25T17:25:41.153Z,3.05
2022-08-25T17:28:08.265Z,3.47
2022-08-25T17:30:39.055Z,3.45
2022-08-25T17:33:05.679Z,3.05
2022-08-25T17:35:32.469Z,3.08
2022-08-25T17:37:59.010Z,3.60
2022-08-25T17:40:26.549Z,3.90
2022-08-25T17:42:53.632Z,4.03
2022-08-25T17:45:20.189Z,3.45
2022-08-25T17:47:46.742Z,3.67
2022-08-25T17:50:13.448Z,3.35
2022-08-25T17:52:40.230Z,3.72
2022-08-25T17:55:08.691Z,3.80
2022-08-25T17:57:38.862Z,3.80
2022-08-25T18:00:12.736Z,4.03
2022-08-25T18:02:40.385Z,3.97
2022-08-25T18:05:07.162Z,4.55
2022-08-25T18:07:33.738Z,3.72
2022-08-25T18:10:00.540Z,4.13
2022-08-25T18:12:27.439Z,3.60
2022-08-25T18:14:54.233Z,4.15
2022-08-25T18:17:22.956Z,3.88
2022-08-25T18:19:49.692Z,4.28
2022-08-25T18:22:16.792Z,4.00
2022-08-25T18:24:44.399Z,4.20
2022-08-25T18:27:11.602Z,4.27
2022-08-25T18:29:38.247Z,4.73
2022-08-25T18:32:07.307Z,4.50
2022-08-25T18:34:33.950Z,4.33
2022-08-25T18:37:23.869Z,4.47
2022-08-25T18:40:09.346Z,4.20
2022-08-25T18:42:36.356Z,4.30
2022-08-25T18:45:05.646Z,4.90
2022-08-25T18:47:33.186Z,4.17
2022-08-25T18:50:04.268Z,4.50
2022-08-25T18:52:31.757Z,4.20
2022-08-25T18:54:59.353Z,4.43
2022-08-25T18:57:27.518Z,3.63
2022-08-25T18:59:55.512Z,4.50
2022-08-25T19:02:22.183Z,4.37
2022-08-25T19:04:52.641Z,4.20
2022-08-25T19:07:19.670Z,4.10
2022-08-25T19:09:46.411Z,5.87
2022-08-25T19:12:22.617Z,6.87
2022-08-25T19:14:49.743Z,4.20
2022-08-25T19:17:17.174Z,4.27
2022-08-25T19:19:44.220Z,4.30
2022-08-25T19:22:31.765Z,4.57
2022-08-25T19:24:58.808Z,5.33
2022-08-25T19:27:25.678Z,4.70
2022-08-25T19:29:52.595Z,4.40
2022-08-25T19:32:20.008Z,4.43
2022-08-25T19:34:51.549Z,4.50
2022-08-25T19:37:18.373Z,4.60
2022-08-25T19:39:52.843Z,4.83
2022-08-25T19:42:37.278Z,4.30
2022-08-25T19:45:09.220Z,4.17
2022-08-25T19:47:37.382Z,5.03
2022-08-25T19:50:06.133Z,4.60
2022-08-25T19:52:33.543Z,4.60
2022-08-25T19:55:02.890Z,4.53
2022-08-25T19:57:42.078Z,4.87
2022-08-25T20:00:19.575Z,4.83
2022-08-25T20:02:47.303Z,5.00
2022-08-25T20:05:16.947Z,4.90
2022-08-25T20:07:52.811Z,4.83
2022-08-25T20:10:20.630Z,4.90
2022-08-25T20:12:47.651Z,5.10
2022-08-25T20:15:16.592Z,5.23
2022-08-25T20:17:43.768Z,5.17
2022-08-25T20:20:16.870Z,5.40
2022-08-25T20:22:44.351Z,4.97
2022-08-25T20:25:22.858Z,5.53
2022-08-25T20:27:55.321Z,5.30
2022-08-25T20:30:27.692Z,5.47
2022-08-25T20:32:56.865Z,4.77
2022-08-25T20:35:26.793Z,5.87
2022-08-25T20:37:54.709Z,6.13
2022-08-25T20:40:25.421Z,5.60
2022-08-25T20:42:53.160Z,5.53
2022-08-25T20:45:23.814Z,6.40
2022-08-25T20:48:00.364Z,5.63
2022-08-25T20:50:27.545Z,6.27
2022-08-25T20:52:56.669Z,6.00
2022-08-25T20:55:24.229Z,6.00
2022-08-25T20:57:50.857Z,5.97
2022-08-25T21:00:19.390Z,5.37
2022-08-25T21:02:50.925Z,6.30
2022-08-25T21:05:17.901Z,6.50
2022-08-25T21:07:44.476Z,6.13
2022-08-25T21:10:14.491Z,5.60
2022-08-25T21:12:42.307Z,6.03
2022-08-25T21:15:10.394Z,6.17
2022-08-25T21:17:37.142Z,5.50
2022-08-25T21:20:06.725Z,6.00
2022-08-25T21:22:37.919Z,5.67
2022-08-25T21:25:05.106Z,6.13
2022-08-25T21:27:33.174Z,6.10
2022-08-25T21:29:59.806Z,5.83
2022-08-25T21:32:26.396Z,6.37
2022-08-25T21:34:54.651Z,6.40
2022-08-25T21:37:22.051Z,6.07
2022-08-25T21:39:48.919Z,5.77
2022-08-25T21:42:15.529Z,5.60
2022-08-25T21:44:42.099Z,5.70
2022-08-25T21:47:09.193Z,5.70
2022-08-25T21:49:37.475Z,6.10
2022-08-25T21:52:04.620Z,5.90
2022-08-25T21:54:31.511Z,5.67
2022-08-25T21:57:01.684Z,5.80
2022-08-25T21:59:31.965Z,5.80
2022-08-25T22:02:02.774Z,5.47
2022-08-25T22:04:30.262Z,5.57
2022-08-25T22:06:58.477Z,5.50
2022-08-25T22:09:26.451Z,5.43
2022-08-25T22:11:55.799Z,5.90
2022-08-25T22:14:24.275Z,6.20
2022-08-25T22:16:53.439Z,5.70
2022-08-25T22:19:21.603Z,6.40
2022-08-25T22:21:50.262Z,6.30
2022-08-25T22:24:18.365Z,5.73
2022-08-25T22:26:47.375Z,5.97
2022-08-25T22:29:14.592Z,5.53
2022-08-25T22:31:53.328Z,6.10
2022-08-25T22:34:20.098Z,5.97
2022-08-25T22:36:59.667Z,5.70
2022-08-25T22:39:27.218Z,6.43
2022-08-25T22:41:53.952Z,6.17
2022-08-25T22:44:22.001Z,6.23
2022-08-25T22:46:48.542Z,6.20
2022-08-25T22:49:15.070Z,6.90
2022-08-25T22:51:42.019Z,6.40
2022-08-25T22:54:09.566Z,5.83
2022-08-25T22:56:37.744Z,6.27
2022-08-25T22:59:08.468Z,5.87
2022-08-25T23:01:36.119Z,6.03
2022-08-25T23:04:04.971Z,6.30
2022-08-25T23:06:32.129Z,6.50
2022-08-25T23:08:58.746Z,5.70
2022-08-25T23:11:26.020Z,6.23
2022-08-25T23:13:57.605Z,6.70
2022-08-25T23:16:24.720Z,6.37
2022-08-25T23:18:51.980Z,6.47
2022-08-25T23:21:41.085Z,6.53
2022-08-25T23:24:09.147Z,6.60
2022-08-25T23:26:38.097Z,7.00
2022-08-25T23:29:18.840Z,7.13
2022-08-25T23:31:48.018Z,7.00
2022-08-25T23:34:16.547Z,6.90
2022-08-25T23:36:43.976Z,7.00
2022-08-25T23:39:11.523Z,6.90
2022-08-25T23:41:38.157Z,7.40
2022-08-25T23:44:05.767Z,7.33
2022-08-25T23:46:35.124Z,7.53
2022-08-25T23:49:03.010Z,7.97
2022-08-25T23:51:33.680Z,7.27
2022-08-25T23:54:06.001Z,7.13
2022-08-25T23:56:35.653Z,7.50
2022-08-25T23:59:04.775Z,7.73
